Time;durP1;ratioP1;P1;durP2;ratioP2;P2;SDS_P1;SDS_P2;PMS_P1;PMS_P2;Temp;Humidity;BMP_temperature;BMP_pressure;BME280_temperature;BME280_humidity;BME280_pressure;Samples;Min_cycle;Max_cycle;Signal;HPM_P1;HPM_P2
2023/05/13 00:01:18;;;;;;;6.28;4.32;;;;;;;;;;4998500;28;20050;-28
2023/05/13 00:03:44;;;;;;;4.72;3.47;;;;;;;;;;4980804;28;20038;-28
2023/05/13 00:06:10;;;;;;;7.00;3.42;;;;;;;;;;4998200;28;20374;-24
2023/05/13 00:08:36;;;;;;;5.82;4.18;;;;;;;;;;4998406;28;20110;-27
2023/05/13 00:11:02;;;;;;;5.18;3.67;;;;;;;;;;4998029;28;20045;-28
2023/05/13 00:13:28;;;;;;;4.90;4.13;;;;;;;;;;4998015;28;20105;-28
2023/05/13 00:15:55;;;;;;;4.85;3.70;;;;;;;;;;4998210;28;20030;-24
2023/05/13 00:18:21;;;;;;;8.65;4.47;;;;;;;;;;4997945;28;20030;-29
2023/05/13 00:20:47;;;;;;;4.60;3.78;;;;;;;;;;4998137;28;20058;-28
2023/05/13 00:23:13;;;;;;;6.30;4.45;;;;;;;;;;4997783;28;20029;-25
2023/05/13 00:25:40;;;;;;;5.00;3.40;;;;;;;;;;4997799;28;20101;-27
2023/05/13 00:28:07;;;;;;;6.68;4.75;;;;;;;;;;4997965;28;20027;-28
2023/05/13 00:30:33;;;;;;;3.85;3.50;;;;;;;;;;4997964;28;20035;-29
2023/05/13 00:32:59;;;;;;;6.07;3.20;;;;;;;;;;4997842;28;20076;-28
2023/05/13 00:35:25;;;;;;;6.50;3.70;;;;;;;;;;4997819;28;20030;-28
2023/05/13 00:37:51;;;;;;;4.07;3.67;;;;;;;;;;4997575;28;20034;-24
2023/05/13 00:40:21;;;;;;;4.25;3.85;;;;;;;;;;4997467;28;20026;-26
2023/05/13 00:42:47;;;;;;;4.32;3.83;;;;;;;;;;4997586;28;20029;-26
2023/05/13 00:45:14;;;;;;;6.57;4.47;;;;;;;;;;4997752;28;20104;-28
2023/05/13 00:47:40;;;;;;;3.92;3.30;;;;;;;;;;4997730;28;20037;-28
2023/05/13 00:50:07;;;;;;;6.13;3.42;;;;;;;;;;4997410;28;20027;-27
2023/05/13 00:52:34;;;;;;;3.88;3.55;;;;;;;;;;4997251;28;20189;-28
2023/05/13 00:55:00;;;;;;;4.50;3.05;;;;;;;;;;4997517;28;20030;-25
2023/05/13 00:57:26;;;;;;;4.18;3.20;;;;;;;;;;4979833;28;20453;-28
2023/05/13 00:59:52;;;;;;;4.18;3.53;;;;;;;;;;4997258;28;20023;-27
2023/05/13 01:02:39;;;;;;;3.78;3.47;;;;;;;;;;4997317;28;20080;-24
2023/05/13 01:05:05;;;;;;;9.35;3.83;;;;;;;;;;4996829;28;20113;-23
2023/05/13 01:07:50;;;;;;;4.78;3.40;;;;;;;;;;4997011;28;20128;-27
2023/05/13 01:10:36;;;;;;;3.38;3.08;;;;;;;;;;4997285;28;20041;-27
2023/05/13 01:13:04;;;;;;;3.63;3.20;;;;;;;;;;4997178;28;20027;-26
2023/05/13 01:15:31;;;;;;;5.03;3.30;;;;;;;;;;4996761;28;20076;-28
2023/05/13 01:18:03;;;;;;;3.80;3.30;;;;;;;;;;4979664;28;20034;-28
2023/05/13 01:20:30;;;;;;;8.93;3.30;;;;;;;;;;4996834;28;20049;-28
2023/05/13 01:22:56;;;;;;;5.55;2.92;;;;;;;;;;4996684;28;20049;-28
2023/05/13 01:25:24;;;;;;;4.10;3.70;;;;;;;;;;4996744;28;20073;-27
2023/05/13 01:27:51;;;;;;;5.18;3.88;;;;;;;;;;4996666;28;20045;-26
2023/05/13 01:30:18;;;;;;;9.95;3.80;;;;;;;;;;4996610;28;20026;-28
2023/05/13 01:32:45;;;;;;;3.10;2.80;;;;;;;;;;4996498;28;20097;-28
2023/05/13 01:35:11;;;;;;;5.32;3.60;;;;;;;;;;4996715;28;20057;-28
2023/05/13 01:37:38;;;;;;;5.32;3.58;;;;;;;;;;4996664;28;20030;-27
2023/05/13 01:40:07;;;;;;;3.83;3.47;;;;;;;;;;4996422;28;20030;-25
2023/05/13 01:42:34;;;;;;;4.10;3.70;;;;;;;;;;4996327;28;20335;-24
2023/05/13 01:45:00;;;;;;;6.20;3.30;;;;;;;;;;4996547;28;20030;-23
2023/05/13 01:47:27;;;;;;;7.35;5.15;;;;;;;;;;4979178;28;20041;-28
2023/05/13 01:49:53;;;;;;;7.30;3.30;;;;;;;;;;4996234;28;20026;-29
2023/05/13 01:52:19;;;;;;;3.72;3.33;;;;;;;;;;4996131;28;20037;-29
2023/05/13 01:54:45;;;;;;;5.13;2.85;;;;;;;;;;4996343;28;20031;-28
2023/05/13 01:57:11;;;;;;;5.35;3.63;;;;;;;;;;4978843;28;20476;-28
2023/05/13 01:59:38;;;;;;;4.70;2.95;;;;;;;;;;4996096;28;20382;-26
2023/05/13 02:02:04;;;;;;;4.38;3.35;;;;;;;;;;4996171;28;20026;-28
2023/05/13 02:04:30;;;;;;;4.40;3.15;;;;;;;;;;4995707;28;20054;-26
2023/05/13 02:06:57;;;;;;;4.65;2.90;;;;;;;;;;4978946;28;20045;-27
2023/05/13 02:09:23;;;;;;;4.57;3.30;;;;;;;;;;4995610;28;20512;-27
2023/05/13 02:11:49;;;;;;;3.53;3.22;;;;;;;;;;4996025;28;20129;-25
2023/05/13 02:14:16;;;;;;;4.65;3.90;;;;;;;;;;4995743;28;20481;-28
2023/05/13 02:16:42;;;;;;;3.20;3.00;;;;;;;;;;4978597;28;20034;-28
2023/05/13 02:19:08;;;;;;;5.30;3.00;;;;;;;;;;4996010;28;20085;-25
2023/05/13 02:21:34;;;;;;;4.10;3.70;;;;;;;;;;4995719;28;20108;-24
2023/05/13 02:24:00;;;;;;;4.57;3.05;;;;;;;;;;4995653;28;20026;-27
2023/05/13 02:26:26;;;;;;;3.88;3.58;;;;;;;;;;4978482;28;20050;-28
2023/05/13 02:28:53;;;;;;;4.40;3.30;;;;;;;;;;4962451;28;20088;-25
2023/05/13 02:31:19;;;;;;;3.17;2.70;;;;;;;;;;4995802;28;20033;-29
2023/05/13 02:33:45;;;;;;;5.50;2.88;;;;;;;;;;4995435;28;20034;-28
2023/05/13 02:36:11;;;;;;;3.22;2.95;;;;;;;;;;4995632;28;20350;-28
2023/05/13 02:38:37;;;;;;;4.32;3.03;;;;;;;;;;4995746;28;20045;-24
2023/05/13 02:41:03;;;;;;;4.20;3.38;;;;;;;;;;4995660;28;20042;-24
2023/05/13 02:43:30;;;;;;;4.07;3.67;;;;;;;;;;4995580;28;20031;-28
2023/05/13 02:45:56;;;;;;;5.28;3.35;;;;;;;;;;4995542;28;20026;-23
2023/05/13 02:48:22;;;;;;;3.38;3.05;;;;;;;;;;4995393;28;20457;-26
2023/05/13 02:50:48;;;;;;;3.67;3.00;;;;;;;;;;4995320;28;20026;-26
2023/05/13 02:53:14;;;;;;;5.60;3.78;;;;;;;;;;4978259;28;20088;-28
2023/05/13 02:55:40;;;;;;;3.40;3.20;;;;;;;;;;4995524;28;20030;-28
2023/05/13 02:58:06;;;;;;;2.83;2.55;;;;;;;;;;4995476;28;20396;-26
2023/05/13 03:00:32;;;;;;;5.72;3.72;;;;;;;;;;4995226;28;20053;-26
2023/05/13 03:02:58;;;;;;;3.72;3.42;;;;;;;;;;4995429;28;20072;-28
2023/05/13 03:05:25;;;;;;;3.42;2.88;;;;;;;;;;4995023;28;20054;-27
2023/05/13 03:07:51;;;;;;;4.15;3.17;;;;;;;;;;4995433;28;20035;-24
2023/05/13 03:10:17;;;;;;;7.07;3.42;;;;;;;;;;4995340;28;20027;-27
2023/05/13 03:12:43;;;;;;;3.80;3.25;;;;;;;;;;4995211;28;20023;-30
2023/05/13 03:15:10;;;;;;;4.20;3.05;;;;;;;;;;4995573;28;20101;-28
2023/05/13 03:17:36;;;;;;;3.08;2.88;;;;;;;;;;4995011;28;20031;-27
2023/05/13 03:20:02;;;;;;;4.13;3.83;;;;;;;;;;4998352;28;20393;-24
2023/05/13 03:22:28;;;;;;;5.28;3.42;;;;;;;;;;4999178;28;20454;-27
2023/05/13 03:24:54;;;;;;;3.75;3.28;;;;;;;;;;4998868;28;20026;-23
2023/05/13 03:27:20;;;;;;;4.70;3.30;;;;;;;;;;4998893;28;20033;-25
2023/05/13 03:29:46;;;;;;;3.13;2.78;;;;;;;;;;4999139;28;20352;-28
2023/05/13 03:32:12;;;;;;;5.30;2.75;;;;;;;;;;4998751;28;20366;-27
2023/05/13 03:34:39;;;;;;;5.80;3.50;;;;;;;;;;4999048;28;20035;-26
2023/05/13 03:37:05;;;;;;;5.05;3.17;;;;;;;;;;4998585;28;20034;-27
2023/05/13 03:39:31;;;;;;;5.30;3.78;;;;;;;;;;4998920;28;20318;-25
2023/05/13 03:41:57;;;;;;;5.80;3.33;;;;;;;;;;4998794;28;20038;-26
2023/05/13 03:44:23;;;;;;;3.47;3.17;;;;;;;;;;4998605;28;20046;-28
2023/05/13 03:46:49;;;;;;;3.63;3.33;;;;;;;;;;4998515;28;20366;-27
2023/05/13 03:49:17;;;;;;;4.82;3.53;;;;;;;;;;4998712;28;20045;-25
2023/05/13 03:51:43;;;;;;;3.78;3.47;;;;;;;;;;4998734;28;20033;-29
2023/05/13 03:54:09;;;;;;;3.35;2.97;;;;;;;;;;4998361;28;20424;-26
2023/05/13 03:56:36;;;;;;;3.25;2.95;;;;;;;;;;4998289;28;20027;-28
2023/05/13 03:59:02;;;;;;;7.70;3.28;;;;;;;;;;4998354;28;20022;-27
2023/05/13 04:01:29;;;;;;;4.47;3.13;;;;;;;;;;4998562;28;20096;-25
2023/05/13 04:03:55;;;;;;;3.72;3.05;;;;;;;;;;4997923;28;20496;-27
2023/05/13 04:06:21;;;;;;;3.72;3.42;;;;;;;;;;4998105;28;20027;-29
2023/05/13 04:08:48;;;;;;;5.03;2.90;;;;;;;;;;4998390;28;20354;-28
2023/05/13 04:11:14;;;;;;;3.80;3.50;;;;;;;;;;4998050;28;20109;-26
2023/05/13 04:13:42;;;;;;;3.08;2.83;;;;;;;;;;4998207;28;20338;-25
2023/05/13 04:16:08;;;;;;;3.55;2.63;;;;;;;;;;4997852;28;20358;-27
2023/05/13 04:18:34;;;;;;;3.40;3.10;;;;;;;;;;4997862;28;20031;-24
2023/05/13 04:21:05;;;;;;;5.18;3.03;;;;;;;;;;4997853;28;20018;-24
2023/05/13 04:23:31;;;;;;;3.50;3.20;;;;;;;;;;4997771;28;20038;-27
2023/05/13 04:25:57;;;;;;;3.50;3.20;;;;;;;;;;4997715;28;20041;-28
2023/05/13 04:28:23;;;;;;;3.42;3.00;;;;;;;;;;4997997;28;20128;-24
2023/05/13 04:30:49;;;;;;;3.60;3.20;;;;;;;;;;4997082;28;20106;-25
2023/05/13 04:33:16;;;;;;;6.40;3.35;;;;;;;;;;4997594;28;20031;-27
2023/05/13 04:35:42;;;;;;;3.08;2.78;;;;;;;;;;4997823;28;20030;-25
2023/05/13 04:38:08;;;;;;;3.88;3.45;;;;;;;;;;4997593;28;20026;-29
2023/05/13 04:40:34;;;;;;;4.07;3.67;;;;;;;;;;4997550;28;20030;-23
2023/05/13 04:43:00;;;;;;;3.95;3.65;;;;;;;;;;4997466;28;20049;-28
2023/05/13 04:45:26;;;;;;;6.63;3.20;;;;;;;;;;4997400;28;20025;-28
2023/05/13 04:47:53;;;;;;;3.92;3.50;;;;;;;;;;4997669;28;20382;-26
2023/05/13 04:50:19;;;;;;;3.80;3.00;;;;;;;;;;4997417;28;20022;-28
2023/05/13 04:52:46;;;;;;;3.22;2.95;;;;;;;;;;4997279;28;20085;-27
2023/05/13 04:55:12;;;;;;;3.42;2.72;;;;;;;;;;4997531;28;20057;-25
2023/05/13 04:57:38;;;;;;;3.70;2.78;;;;;;;;;;4997189;28;20026;-27
2023/05/13 05:00:05;;;;;;;2.88;2.67;;;;;;;;;;4997180;28;20033;-25
2023/05/13 05:02:31;;;;;;;4.38;3.05;;;;;;;;;;4980052;28;20026;-30
2023/05/13 05:04:57;;;;;;;3.55;2.95;;;;;;;;;;4996850;28;20489;-27
2023/05/13 05:07:24;;;;;;;2.95;2.70;;;;;;;;;;4997367;28;20026;-28
2023/05/13 05:09:50;;;;;;;3.60;3.30;;;;;;;;;;4996924;28;20037;-28
2023/05/13 05:12:16;;;;;;;3.17;2.88;;;;;;;;;;4997182;28;20361;-28
2023/05/13 05:14:42;;;;;;;3.50;3.20;;;;;;;;;;4997175;28;20030;-27
2023/05/13 05:17:09;;;;;;;3.35;3.08;;;;;;;;;;4997002;28;20057;-27
2023/05/13 05:19:35;;;;;;;5.93;3.70;;;;;;;;;;4997586;28;20460;-28
2023/05/13 05:22:01;;;;;;;3.70;3.05;;;;;;;;;;4996908;28;20037;-25
2023/05/13 05:24:28;;;;;;;3.55;3.20;;;;;;;;;;4996759;28;20105;-26
2023/05/13 05:26:55;;;;;;;3.17;2.63;;;;;;;;;;4996684;28;20037;-26
2023/05/13 05:29:21;;;;;;;3.45;2.85;;;;;;;;;;4996663;28;20026;-26
2023/05/13 05:31:48;;;;;;;5.43;3.72;;;;;;;;;;4996428;28;20097;-26
2023/05/13 05:34:14;;;;;;;2.67;2.47;;;;;;;;;;4996520;28;20034;-26
2023/05/13 05:36:40;;;;;;;3.20;2.90;;;;;;;;;;4996415;28;20034;-29
2023/05/13 05:39:06;;;;;;;3.05;2.85;;;;;;;;;;4997195;28;20084;-25
2023/05/13 05:41:32;;;;;;;5.53;3.75;;;;;;;;;;4996276;28;20023;-28
2023/05/13 05:43:58;;;;;;;3.92;2.95;;;;;;;;;;4995593;28;20029;-27
2023/05/13 05:46:25;;;;;;;2.67;2.38;;;;;;;;;;4996539;28;20088;-28
2023/05/13 05:48:51;;;;;;;8.05;3.08;;;;;;;;;;4979078;28;20460;-28
2023/05/13 05:51:17;;;;;;;4.30;2.88;;;;;;;;;;4996420;28;20026;-24
2023/05/13 05:53:43;;;;;;;4.90;2.92;;;;;;;;;;4978924;28;20030;-26
2023/05/13 05:56:09;;;;;;;5.07;3.40;;;;;;;;;;4995920;28;20096;-26
2023/05/13 05:58:36;;;;;;;4.72;3.30;;;;;;;;;;4995980;28;20453;-25
2023/05/13 06:01:02;;;;;;;3.05;2.75;;;;;;;;;;4995995;28;20030;-29
2023/05/13 06:03:28;;;;;;;4.47;2.72;;;;;;;;;;4995611;28;20065;-28
2023/05/13 06:05:54;;;;;;;2.97;2.72;;;;;;;;;;4978774;28;20170;-26
2023/05/13 06:08:21;;;;;;;4.10;3.00;;;;;;;;;;4996200;28;20038;-28
2023/05/13 06:10:47;;;;;;;3.40;2.92;;;;;;;;;;4978701;28;20026;-27
2023/05/13 06:13:13;;;;;;;3.35;3.05;;;;;;;;;;4995713;28;20085;-28
2023/05/13 06:15:39;;;;;;;5.15;3.00;;;;;;;;;;4995877;28;20064;-28
2023/05/13 06:18:06;;;;;;;2.95;2.75;;;;;;;;;;4995660;28;20096;-26
2023/05/13 06:20:32;;;;;;;3.40;2.88;;;;;;;;;;4995883;28;20041;-29
2023/05/13 06:22:58;;;;;;;3.33;2.90;;;;;;;;;;4995605;28;20369;-25
2023/05/13 06:25:24;;;;;;;3.60;3.15;;;;;;;;;;4978333;28;20084;-27
2023/05/13 06:27:50;;;;;;;5.47;3.03;;;;;;;;;;4995487;28;20037;-35
2023/05/13 06:30:16;;;;;;;3.40;3.10;;;;;;;;;;4995808;28;20361;-24
2023/05/13 06:32:43;;;;;;;4.93;3.58;;;;;;;;;;4995445;28;20113;-27
2023/05/13 06:35:09;;;;;;;3.53;3.22;;;;;;;;;;4995730;28;20030;-25
2023/05/13 06:37:35;;;;;;;4.13;2.80;;;;;;;;;;4995639;28;20030;-26
2023/05/13 06:40:01;;;;;;;3.15;2.88;;;;;;;;;;4995680;28;20429;-28
2023/05/13 06:42:27;;;;;;;3.25;2.95;;;;;;;;;;4978654;28;20034;-27
2023/05/13 06:44:54;;;;;;;4.15;3.80;;;;;;;;;;4995356;28;20022;-28
2023/05/13 06:47:20;;;;;;;3.17;2.97;;;;;;;;;;4995482;28;20369;-27
2023/05/13 06:49:46;;;;;;;2.83;2.63;;;;;;;;;;4995488;28;20026;-26
2023/05/13 06:52:12;;;;;;;3.30;2.50;;;;;;;;;;4978264;28;20069;-22
2023/05/13 06:54:39;;;;;;;3.55;3.35;;;;;;;;;;4994912;28;20026;-24
2023/05/13 06:57:06;;;;;;;3.63;2.72;;;;;;;;;;4995043;28;20464;-25
2023/05/13 06:59:32;;;;;;;3.70;3.40;;;;;;;;;;4995110;28;20453;-25
2023/05/13 07:01:58;;;;;;;3.15;2.92;;;;;;;;;;4995018;28;20104;-24
2023/05/13 07:04:24;;;;;;;3.10;2.90;;;;;;;;;;4978027;28;20085;-27
2023/05/13 07:06:51;;;;;;;3.40;3.20;;;;;;;;;;4995400;28;20026;-28
2023/05/13 07:09:17;;;;;;;3.88;3.58;;;;;;;;;;4995078;28;20365;-25
2023/05/13 07:11:43;;;;;;;3.65;3.33;;;;;;;;;;4995355;28;20022;-27
2023/05/13 07:14:09;;;;;;;3.33;3.13;;;;;;;;;;4995026;28;20031;-29
2023/05/13 07:16:35;;;;;;;2.97;2.50;;;;;;;;;;4995088;28;20398;-28
2023/05/13 07:19:01;;;;;;;3.40;2.80;;;;;;;;;;4995059;28;20030;-25
2023/05/13 07:21:29;;;;;;;6.65;3.45;;;;;;;;;;4995245;28;20102;-28
2023/05/13 07:23:55;;;;;;;3.63;3.38;;;;;;;;;;4994857;28;20043;-24
2023/05/13 07:26:21;;;;;;;2.90;2.70;;;;;;;;;;4977814;28;20026;-25
2023/05/13 07:28:47;;;;;;;3.60;3.08;;;;;;;;;;4994911;28;20405;-26
2023/05/13 07:31:13;;;;;;;3.67;3.40;;;;;;;;;;4995177;28;20026;-29
2023/05/13 07:33:39;;;;;;;3.28;2.85;;;;;;;;;;4995076;28;20045;-29
2023/05/13 07:36:06;;;;;;;3.40;3.13;;;;;;;;;;4994811;28;20037;-26
2023/05/13 07:38:32;;;;;;;3.20;2.90;;;;;;;;;;4977744;28;20022;-27
2023/05/13 07:40:59;;;;;;;4.10;3.45;;;;;;;;;;4995043;28;20046;-23
2023/05/13 07:43:26;;;;;;;3.70;3.40;;;;;;;;;;4995017;28;20023;-26
2023/05/13 07:45:52;;;;;;;2.75;2.53;;;;;;;;;;4994692;28;20513;-24
2023/05/13 07:48:19;;;;;;;3.20;3.00;;;;;;;;;;4994743;28;20034;-21
2023/05/13 07:50:45;;;;;;;4.18;3.03;;;;;;;;;;4994541;28;20085;-25
2023/05/13 07:53:12;;;;;;;4.30;3.08;;;;;;;;;;4994579;28;20108;-21
2023/05/13 07:55:38;;;;;;;3.78;3.30;;;;;;;;;;4994443;28;20564;-23
2023/05/13 07:58:05;;;;;;;3.10;2.90;;;;;;;;;;4994615;28;20108;-28
2023/05/13 08:00:31;;;;;;;7.85;3.83;;;;;;;;;;4994946;28;20414;-25
2023/05/13 08:02:57;;;;;;;3.05;2.78;;;;;;;;;;4994814;28;20027;-27
2023/05/13 08:05:23;;;;;;;4.18;3.78;;;;;;;;;;4994713;28;20042;-24
2023/05/13 08:07:50;;;;;;;3.15;2.95;;;;;;;;;;4998106;28;20460;-26
2023/05/13 08:10:16;;;;;;;3.60;3.25;;;;;;;;;;4998261;28;20027;-22
2023/05/13 08:12:43;;;;;;;4.95;3.38;;;;;;;;;;4998009;28;20161;-27
2023/05/13 08:15:10;;;;;;;3.67;2.72;;;;;;;;;;4998465;28;20037;-28
2023/05/13 08:17:37;;;;;;;3.38;3.08;;;;;;;;;;4997892;28;20037;-27
2023/05/13 08:20:03;;;;;;;4.13;3.58;;;;;;;;;;4997821;28;20442;-25
2023/05/13 08:22:29;;;;;;;3.92;3.63;;;;;;;;;;4998005;28;20027;-25
2023/05/13 08:24:55;;;;;;;2.83;2.60;;;;;;;;;;4997915;28;20377;-27
2023/05/13 08:27:21;;;;;;;3.30;3.10;;;;;;;;;;4997763;28;20034;-22
2023/05/13 08:29:47;;;;;;;3.97;3.50;;;;;;;;;;4998014;28;20030;-26
2023/05/13 08:32:14;;;;;;;3.28;2.97;;;;;;;;;;4997536;28;20049;-25
2023/05/13 08:34:40;;;;;;;4.38;3.03;;;;;;;;;;4997781;28;20353;-24
2023/05/13 08:37:06;;;;;;;3.22;2.92;;;;;;;;;;4997694;28;20031;-25
2023/05/13 08:39:33;;;;;;;4.50;3.38;;;;;;;;;;4997536;28;20477;-24
2023/05/13 08:42:01;;;;;;;3.08;2.88;;;;;;;;;;4997520;28;20045;-24
2023/05/13 08:44:28;;;;;;;3.45;3.25;;;;;;;;;;4997368;28;20019;-24
2023/05/13 08:47:24;;;;;;;3.15;2.85;;;;;;;;;;4997346;28;20030;-22
2023/05/13 08:49:50;;;;;;;4.30;3.92;;;;;;;;;;4981033;28;20045;-24
2023/05/13 08:52:18;;;;;;;3.08;2.88;;;;;;;;;;4997460;28;20030;-22
2023/05/13 08:54:45;;;;;;;3.28;3.08;;;;;;;;;;4997519;28;20064;-21
2023/05/13 08:57:11;;;;;;;3.33;3.03;;;;;;;;;;4997047;28;20146;-24
2023/05/13 08:59:37;;;;;;;4.85;3.08;;;;;;;;;;4997033;28;20050;-21
2023/05/13 09:02:04;;;;;;;3.70;3.28;;;;;;;;;;4996986;28;20101;-23
2023/05/13 09:04:31;;;;;;;5.43;3.30;;;;;;;;;;4996843;28;20039;-23
2023/05/13 09:06:57;;;;;;;4.68;3.65;;;;;;;;;;4996938;28;20034;-22
2023/05/13 09:09:23;;;;;;;3.70;3.03;;;;;;;;;;4997260;28;20048;-20
2023/05/13 09:11:49;;;;;;;3.75;3.45;;;;;;;;;;4996908;28;20030;-23
2023/05/13 09:14:18;;;;;;;3.45;3.15;;;;;;;;;;4997155;28;20034;-27
2023/05/13 09:16:44;;;;;;;3.42;3.13;;;;;;;;;;4996841;28;20038;-21
2023/05/13 09:19:11;;;;;;;4.05;3.30;;;;;;;;;;4997086;28;20026;-29
2023/05/13 09:21:37;;;;;;;4.10;3.72;;;;;;;;;;4996779;28;20026;-28
2023/05/13 09:24:12;;;;;;;7.05;3.67;;;;;;;;;;4996973;28;20049;-22
2023/05/13 09:26:38;;;;;;;6.03;3.25;;;;;;;;;;4996916;28;20018;-22
2023/05/13 09:29:18;;;;;;;3.20;2.92;;;;;;;;;;4979499;28;20527;-21
2023/05/13 09:31:45;;;;;;;3.53;3.28;;;;;;;;;;4996849;28;20037;-28
2023/05/13 09:34:11;;;;;;;3.65;3.20;;;;;;;;;;4996563;28;20038;-26
2023/05/13 09:36:38;;;;;;;3.35;3.05;;;;;;;;;;4996432;28;20369;-24
2023/05/13 09:39:05;;;;;;;7.53;3.70;;;;;;;;;;4996416;28;20039;-23
2023/05/13 09:41:31;;;;;;;3.38;3.08;;;;;;;;;;4996368;28;20063;-26
2023/05/13 09:43:58;;;;;;;3.70;3.40;;;;;;;;;;4996251;28;20022;-25
2023/05/13 09:46:24;;;;;;;3.30;2.92;;;;;;;;;;4996600;28;20473;-22
2023/05/13 09:48:55;;;;;;;5.00;3.00;;;;;;;;;;4996513;28;20026;-27
2023/05/13 09:51:26;;;;;;;3.08;2.88;;;;;;;;;;4996794;28;20026;-22
2023/05/13 09:53:52;;;;;;;4.37;3.30;;;;;;;;;;4996120;28;20038;-29
2023/05/13 09:56:25;;;;;;;3.20;2.83;;;;;;;;;;4996023;28;20293;-25
2023/05/13 09:58:51;;;;;;;3.65;3.35;;;;;;;;;;4996340;28;20347;-25
2023/05/13 10:01:19;;;;;;;4.20;3.85;;;;;;;;;;4996009;28;20030;-26
2023/05/13 10:03:45;;;;;;;3.55;3.25;;;;;;;;;;4995670;28;20100;-20
2023/05/13 10:06:11;;;;;;;2.90;2.70;;;;;;;;;;4996247;28;20425;-24
2023/05/13 10:08:38;;;;;;;3.25;2.95;;;;;;;;;;4996187;28;20409;-22
2023/05/13 10:11:06;;;;;;;4.00;3.70;;;;;;;;;;4996086;28;20057;-24
2023/05/13 10:13:32;;;;;;;4.32;3.30;;;;;;;;;;4995871;28;20033;-21
2023/05/13 10:15:59;;;;;;;3.35;3.05;;;;;;;;;;4995775;28;20038;-22
2023/05/13 10:18:27;;;;;;;3.90;3.60;;;;;;;;;;4995842;28;20221;-23
2023/05/13 10:20:54;;;;;;;5.40;3.13;;;;;;;;;;4995982;28;20094;-24
2023/05/13 10:23:22;;;;;;;5.25;4.78;;;;;;;;;;4995893;28;20109;-24
2023/05/13 10:25:49;;;;;;;3.50;3.17;;;;;;;;;;4995592;28;20030;-28
2023/05/13 10:28:16;;;;;;;4.93;2.92;;;;;;;;;;4977899;28;20023;-26
2023/05/13 10:30:43;;;;;;;4.32;2.80;;;;;;;;;;4995549;28;20164;-22
2023/05/13 10:33:10;;;;;;;3.60;3.30;;;;;;;;;;4995698;28;20400;-31
2023/05/13 10:35:37;;;;;;;3.65;2.72;;;;;;;;;;4995503;28;20046;-23
2023/05/13 10:38:03;;;;;;;3.17;2.83;;;;;;;;;;4995349;28;20030;-23
2023/05/13 10:40:32;;;;;;;3.42;3.10;;;;;;;;;;4995364;28;20129;-22
2023/05/13 10:43:01;;;;;;;5.72;3.03;;;;;;;;;;4995495;28;20037;-26
2023/05/13 10:45:28;;;;;;;5.28;3.40;;;;;;;;;;4995511;28;20018;-24
2023/05/13 10:47:55;;;;;;;3.20;3.00;;;;;;;;;;4995483;28;20030;-23
2023/05/13 10:50:22;;;;;;;3.28;2.97;;;;;;;;;;4995157;28;20109;-21
2023/05/13 10:52:48;;;;;;;3.33;3.03;;;;;;;;;;4995414;28;20027;-24
2023/05/13 10:55:19;;;;;;;2.75;2.55;;;;;;;;;;4995368;28;20100;-21
2023/05/13 10:58:06;;;;;;;4.15;3.33;;;;;;;;;;4995087;28;20034;-25
2023/05/13 11:00:32;;;;;;;3.47;3.25;;;;;;;;;;4995097;28;20432;-24
2023/05/13 11:03:08;;;;;;;3.00;2.70;;;;;;;;;;4995377;28;20019;-27
2023/05/13 11:05:34;;;;;;;3.15;2.95;;;;;;;;;;4956450;29;20047;-23
2023/05/13 11:08:01;;;;;;;3.30;3.00;;;;;;;;;;4956717;28;20027;-22
2023/05/13 11:10:31;;;;;;;3.10;2.90;;;;;;;;;;4956609;29;20051;-23
2023/05/13 11:13:09;;;;;;;3.55;3.25;;;;;;;;;;4956488;28;20466;-25
2023/05/13 11:15:51;;;;;;;3.53;3.28;;;;;;;;;;4956394;29;20031;-21
2023/05/13 11:18:19;;;;;;;3.38;3.08;;;;;;;;;;4956360;28;20118;-23
2023/05/13 11:20:52;;;;;;;3.90;3.67;;;;;;;;;;4956301;28;20031;-24
2023/05/13 11:23:21;;;;;;;3.45;3.25;;;;;;;;;;4956395;28;20031;-23
2023/05/13 11:26:07;;;;;;;5.65;3.40;;;;;;;;;;4956302;29;20027;-21
2023/05/13 11:28:52;;;;;;;3.20;3.00;;;;;;;;;;4955257;29;20023;-25
2023/05/13 11:31:20;;;;;;;3.33;3.13;;;;;;;;;;4956259;29;20023;-26
2023/05/13 11:34:15;;;;;;;3.55;3.30;;;;;;;;;;4956171;28;20107;-26
2023/05/13 11:36:43;;;;;;;2.95;2.75;;;;;;;;;;4947828;28;20051;-29
2023/05/13 11:39:11;;;;;;;3.28;3.08;;;;;;;;;;4956458;29;20027;-24
2023/05/13 11:41:41;;;;;;;3.58;3.28;;;;;;;;;;4958406;29;20081;-23
2023/05/13 11:44:07;;;;;;;3.20;3.00;;;;;;;;;;4960076;28;20059;-23
2023/05/13 11:46:34;;;;;;;3.50;3.30;;;;;;;;;;4959857;29;20050;-20
2023/05/13 11:49:00;;;;;;;3.33;3.10;;;;;;;;;;4960053;29;20054;-26
2023/05/13 11:51:26;;;;;;;5.63;4.82;;;;;;;;;;4959772;29;20027;-27
2023/05/13 11:53:59;;;;;;;3.78;3.53;;;;;;;;;;4959584;28;20028;-22
2023/05/13 11:56:27;;;;;;;4.28;3.45;;;;;;;;;;4959618;28;20115;-27
2023/05/13 11:58:53;;;;;;;3.92;3.63;;;;;;;;;;4959596;28;20047;-23
2023/05/13 12:01:20;;;;;;;3.85;3.55;;;;;;;;;;4959546;29;20055;-19
2023/05/13 12:03:46;;;;;;;3.45;3.15;;;;;;;;;;4970112;28;20057;-22
2023/05/13 12:06:13;;;;;;;4.03;3.63;;;;;;;;;;4998560;28;20153;-25
2023/05/13 12:08:45;;;;;;;3.50;3.20;;;;;;;;;;4998493;28;20030;-23
2023/05/13 12:11:12;;;;;;;3.30;3.10;;;;;;;;;;4998227;28;20033;-21
2023/05/13 12:13:41;;;;;;;2.78;2.58;;;;;;;;;;4998145;28;20022;-22
2023/05/13 12:16:09;;;;;;;3.50;3.30;;;;;;;;;;4998037;28;20120;-23
2023/05/13 12:18:36;;;;;;;3.63;3.33;;;;;;;;;;4998067;28;20064;-24
2023/05/13 12:21:13;;;;;;;3.45;3.15;;;;;;;;;;4998028;28;20033;-24
2023/05/13 12:23:42;;;;;;;3.28;3.08;;;;;;;;;;4997928;28;20037;-23
2023/05/13 12:26:08;;;;;;;3.50;3.30;;;;;;;;;;4997884;28;20022;-22
2023/05/13 12:28:34;;;;;;;3.30;3.10;;;;;;;;;;4998077;28;20437;-23
2023/05/13 12:31:01;;;;;;;4.07;3.22;;;;;;;;;;4998052;28;20057;-27
2023/05/13 12:33:31;;;;;;;5.47;3.47;;;;;;;;;;4980538;28;20026;-25
2023/05/13 12:36:18;;;;;;;3.72;3.42;;;;;;;;;;4997571;28;20030;-23
2023/05/13 12:39:01;;;;;;;3.28;3.08;;;;;;;;;;4997566;28;20036;-26
2023/05/13 12:41:37;;;;;;;4.05;3.13;;;;;;;;;;4997541;28;20050;-25
2023/05/13 12:44:07;;;;;;;3.80;3.17;;;;;;;;;;4997508;28;20018;-27
2023/05/13 12:46:33;;;;;;;3.67;3.25;;;;;;;;;;4997792;28;20377;-24
2023/05/13 12:49:01;;;;;;;3.95;3.75;;;;;;;;;;4997441;28;20031;-24
2023/05/13 12:51:28;;;;;;;3.58;3.28;;;;;;;;;;4979717;28;20022;-27
2023/05/13 12:53:55;;;;;;;3.58;3.30;;;;;;;;;;4997273;28;20114;-22
2023/05/13 12:56:22;;;;;;;3.38;3.17;;;;;;;;;;4997322;28;20113;-24
2023/05/13 12:58:48;;;;;;;3.92;3.63;;;;;;;;;;4997481;28;20358;-30
2023/05/13 13:01:14;;;;;;;3.03;2.83;;;;;;;;;;4997212;28;20027;-25
2023/05/13 13:03:40;;;;;;;3.92;3.63;;;;;;;;;;4997145;28;20035;-22
2023/05/13 13:06:09;;;;;;;3.08;2.88;;;;;;;;;;4997465;28;20104;-29
2023/05/13 13:08:35;;;;;;;4.03;3.72;;;;;;;;;;4997258;28;20369;-27
2023/05/13 13:11:02;;;;;;;3.40;3.10;;;;;;;;;;4997350;28;20019;-25
2023/05/13 13:13:29;;;;;;;3.60;3.30;;;;;;;;;;4996844;28;20045;-23
2023/05/13 13:15:55;;;;;;;4.40;3.10;;;;;;;;;;4997114;28;20030;-24
2023/05/13 13:18:23;;;;;;;4.00;3.70;;;;;;;;;;4996875;28;20069;-24
2023/05/13 13:20:50;;;;;;;3.63;3.35;;;;;;;;;;4996832;28;20036;-22
2023/05/13 13:23:16;;;;;;;3.75;3.50;;;;;;;;;;4996969;28;20117;-23
2023/05/13 13:25:42;;;;;;;3.78;3.58;;;;;;;;;;4997013;28;20026;-26
2023/05/13 13:28:08;;;;;;;3.97;3.67;;;;;;;;;;4996733;28;20085;-22
2023/05/13 13:30:35;;;;;;;3.50;3.30;;;;;;;;;;4996732;28;20030;-24
2023/05/13 13:33:01;;;;;;;4.00;3.70;;;;;;;;;;4996593;28;20027;-23
2023/05/13 13:35:27;;;;;;;3.53;3.33;;;;;;;;;;4996883;28;20112;-23
2023/05/13 13:37:53;;;;;;;3.67;3.38;;;;;;;;;;4996423;28;20030;-25
2023/05/13 13:40:19;;;;;;;3.40;3.20;;;;;;;;;;4996531;28;20022;-24
2023/05/13 13:42:45;;;;;;;4.13;3.83;;;;;;;;;;4996676;28;20026;-25
2023/05/13 13:45:12;;;;;;;3.95;3.55;;;;;;;;;;4996425;28;20022;-26
2023/05/13 13:47:38;;;;;;;3.60;3.33;;;;;;;;;;4996321;28;20026;-22
2023/05/13 13:50:05;;;;;;;3.63;3.42;;;;;;;;;;4996529;28;20037;-22
2023/05/13 13:52:31;;;;;;;3.75;3.40;;;;;;;;;;4996200;28;20034;-24
2023/05/13 13:54:57;;;;;;;3.70;3.47;;;;;;;;;;4996491;28;20037;-23
2023/05/13 13:57:23;;;;;;;3.40;3.20;;;;;;;;;;4996131;28;20022;-21
2023/05/13 13:59:51;;;;;;;4.00;3.70;;;;;;;;;;4996075;28;20108;-24
2023/05/13 14:02:17;;;;;;;4.00;3.50;;;;;;;;;;4996073;28;20030;-24
2023/05/13 14:04:43;;;;;;;4.30;4.00;;;;;;;;;;4995075;28;20436;-20
2023/05/13 14:07:09;;;;;;;3.53;3.30;;;;;;;;;;4996056;28;20026;-23
2023/05/13 14:09:35;;;;;;;4.03;3.72;;;;;;;;;;4995973;28;20037;-27
2023/05/13 14:12:01;;;;;;;3.50;3.30;;;;;;;;;;4995818;28;20129;-24
2023/05/13 14:14:28;;;;;;;3.72;3.42;;;;;;;;;;4996197;28;20033;-23
2023/05/13 14:16:54;;;;;;;3.53;3.33;;;;;;;;;;4996025;28;20046;-22
2023/05/13 14:19:20;;;;;;;3.67;3.38;;;;;;;;;;4996313;28;20121;-22
2023/05/13 14:21:46;;;;;;;3.97;3.67;;;;;;;;;;4996253;28;20515;-20
2023/05/13 14:24:12;;;;;;;3.90;3.70;;;;;;;;;;4995693;28;20177;-28
2023/05/13 14:26:38;;;;;;;3.72;3.50;;;;;;;;;;4995659;28;20037;-23
2023/05/13 14:29:05;;;;;;;4.70;4.40;;;;;;;;;;4995927;28;20045;-24
2023/05/13 14:31:31;;;;;;;3.72;3.42;;;;;;;;;;4995638;28;20092;-25
2023/05/13 14:33:57;;;;;;;4.07;3.70;;;;;;;;;;4995467;28;20054;-24
2023/05/13 14:36:25;;;;;;;4.32;3.92;;;;;;;;;;4995777;28;20030;-21
2023/05/13 14:38:52;;;;;;;3.60;3.40;;;;;;;;;;4995491;28;20018;-23
2023/05/13 14:41:22;;;;;;;3.92;3.72;;;;;;;;;;4995497;28;20382;-27
2023/05/13 14:43:48;;;;;;;4.15;3.85;;;;;;;;;;4995589;28;20430;-24